首页
METAR-TAF:

METAR-TAF

机场 :

Roanoke Regional Airport (Woodrum Field)

羅阿諾克, 弗吉尼亚州, 美国

纬度: 37-19-01N, 经度: 079-58-27W, 海拔: 358米

当前天气观测

该预报发布于28分钟前的11:06 UTC
风速3节,风向
温度 12°C
湿度 94%
气压 1000 hPa
能見度: 6.4公里
散云层高于1900英尺
多云层高于2500英尺
阴天层高于3400英尺
雨, 轻雾

METAR: KROA 241106Z 36003KT 4SM RA BR SCT019 BKN025 OVC034 12/11 A2954 RMK AO2 P0001 T01170111

时间: 06:34 (11:34 UTC)

预报

该预报发布于5小时和10分钟前的06:24 UTC
预报有效从24日的 06点(UTC)到 25日的 06点(UTC)
风速10节,风向东南
能見度: 9.7公里
散云层高于500英尺
阴天层高于1800英尺
小雨
短暂存在
从 24日的 06点(UTC)到 24日的 10点(UTC)
能見度: 1.6公里
层高于500英尺
大雨, 轻雾
从 24日的 1000点(UTC)
风速10节,风向西
能見度: 6.4公里
散云层高于700英尺
阴天层高于1500英尺
小雨, 轻雾
从 24日的 1500点(UTC)
风速15节,风向西转西北,有时为35节阵风
能見度: 10公里
散云层高于3000英尺
从 25日的 0000点(UTC)
风速8节,风向西转西北,有时为18节阵风
能見度: 10公里
少量云层高于3000英尺

TAF: KROA 240624Z 2406/2506 14010KT 6SM -RA SCT005 OVC018 WS020/19045KT TEMPO 2406/2410 1SM +RA BR VV005 FM241000 27010KT 4SM -RA BR SCT007 OVC015 FM241500 30015G35KT P6SM SCT030 FM250000 30008G18KT P6SM FEW030

超过4000个机场的气象观测和天气预报(METAR&TAF报告)。

可查询的气象台以黄色和红色小点在地图上表示。

将鼠标移到小点上方,可查看气象台名称。

然后点击查看天气观测和预报。

如需切换地图:点击带黑十字的绿色按钮放大地图;点击带横线的绿色按钮缩小地图;或者点击绿色箭头查看邻近地区的地图。


METAR-TAF: